Time;durP1;ratioP1;P1;durP2;ratioP2;P2;SDS_P1;SDS_P2;PMS_P1;PMS_P2;Temp;Humidity;BMP_temperature;BMP_pressure;BME280_temperature;BME280_humidity;BME280_pressure;Samples;Min_cycle;Max_cycle;Signal;HPM_P1;HPM_P2
2023/09/01 00:01:16;;;;;;;5.45;1.60;;;10.90;99.90;;;;;;4942954;28;20039;-86
2023/09/01 00:03:43;;;;;;;4.15;1.85;;;10.90;99.90;;;;;;4958471;28;20035;-86
2023/09/01 00:06:14;;;;;;;9.75;1.88;;;10.90;99.90;;;;;;4993891;28;20549;-85
2023/09/01 00:08:42;;;;;;;4.47;1.70;;;10.90;99.90;;;;;;4977697;28;20125;-86
2023/09/01 00:11:09;;;;;;;14.07;2.25;;;10.90;99.90;;;;;;4977173;28;20142;-85
2023/09/01 00:13:36;;;;;;;3.30;1.55;;;10.90;99.90;;;;;;4981330;28;20045;-86
2023/09/01 00:16:02;;;;;;;6.15;1.60;;;10.90;99.90;;;;;;5013503;28;20034;-86
2023/09/01 00:18:30;;;;;;;8.15;1.90;;;10.80;99.90;;;;;;4980871;28;20042;-86
2023/09/01 00:20:58;;;;;;;4.63;1.70;;;10.80;99.90;;;;;;4981267;28;20077;-86
2023/09/01 00:23:25;;;;;;;7.13;1.75;;;10.80;99.90;;;;;;4996733;28;20062;-86
2023/09/01 00:25:56;;;;;;;3.55;1.50;;;10.80;99.90;;;;;;4997215;28;20173;-86
2023/09/01 00:28:23;;;;;;;3.65;1.50;;;10.80;99.90;;;;;;4981837;28;20035;-86
2023/09/01 00:30:52;;;;;;;5.28;1.50;;;10.80;99.90;;;;;;4980647;28;20104;-86
2023/09/01 00:33:22;;;;;;;6.53;1.90;;;10.80;99.90;;;;;;5013242;28;20045;-86
2023/09/01 00:35:50;;;;;;;6.15;2.10;;;10.80;99.90;;;;;;4981194;28;20042;-86
2023/09/01 00:38:17;;;;;;;3.50;1.70;;;10.70;99.90;;;;;;4965374;28;20413;-86
2023/09/01 00:40:48;;;;;;;6.78;1.70;;;10.70;99.90;;;;;;4980755;28;20125;-86
2023/09/01 00:43:18;;;;;;;3.92;1.60;;;10.70;99.90;;;;;;4963375;28;20042;-86
2023/09/01 00:45:44;;;;;;;5.07;1.60;;;10.70;99.90;;;;;;4945609;28;20484;-86
2023/09/01 00:48:14;;;;;;;4.57;1.80;;;10.70;99.90;;;;;;4962212;28;20045;-86
2023/09/01 00:50:42;;;;;;;5.03;1.98;;;10.70;99.90;;;;;;4945287;28;20046;-86
2023/09/01 00:53:09;;;;;;;4.13;1.50;;;10.60;99.90;;;;;;4977115;28;20039;-86
2023/09/01 00:55:37;;;;;;;5.05;1.90;;;10.60;99.90;;;;;;4976990;28;20049;-86
2023/09/01 00:58:04;;;;;;;5.57;1.73;;;10.60;99.90;;;;;;4961445;28;20042;-86
2023/09/01 01:00:32;;;;;;;6.00;1.77;;;10.50;99.90;;;;;;4960886;28;20447;-86
2023/09/01 01:03:01;;;;;;;3.65;1.60;;;10.50;99.90;;;;;;4961476;28;20043;-86
2023/09/01 01:06:00;;;;;;;3.63;1.60;;;10.50;99.90;;;;;;4989868;28;20043;-86
2023/09/01 01:08:53;;;;;;;4.78;1.63;;;10.40;99.90;;;;;;4996459;28;20038;-86
2023/09/01 01:11:30;;;;;;;4.18;1.60;;;10.40;99.90;;;;;;4996293;28;20133;-86
2023/09/01 01:14:00;;;;;;;6.07;1.90;;;10.40;99.90;;;;;;4996026;28;20105;-86
2023/09/01 01:16:28;;;;;;;3.70;1.70;;;10.30;99.90;;;;;;4995873;28;20128;-86
2023/09/01 01:19:01;;;;;;;3.88;1.70;;;10.30;99.90;;;;;;4979755;28;20069;-86
2023/09/01 01:21:33;;;;;;;3.25;1.60;;;10.30;99.90;;;;;;4996099;28;20038;-85
2023/09/01 01:24:00;;;;;;;5.35;1.65;;;10.30;99.90;;;;;;4986821;28;20578;-86
2023/09/01 01:26:27;;;;;;;9.48;1.90;;;10.30;99.90;;;;;;4960923;28;20060;-86
2023/09/01 01:28:54;;;;;;;4.63;1.65;;;10.30;99.90;;;;;;4944757;28;20093;-86
2023/09/01 01:31:21;;;;;;;5.68;1.80;;;10.20;99.90;;;;;;4944950;28;20074;-86
2023/09/01 01:33:52;;;;;;;4.30;1.70;;;10.20;99.90;;;;;;4945927;28;20031;-86
2023/09/01 01:36:26;;;;;;;3.00;1.42;;;10.20;99.90;;;;;;4996138;28;20077;-86
2023/09/01 01:39:04;;;;;;;2.67;1.42;;;10.20;99.90;;;;;;4996031;28;20049;-86
2023/09/01 01:41:53;;;;;;;8.57;1.83;;;10.20;99.90;;;;;;5011864;28;20085;-86
2023/09/01 01:44:23;;;;;;;11.57;2.03;;;10.20;99.90;;;;;;4995510;28;20498;-86
2023/09/01 01:46:50;;;;;;;5.55;2.03;;;10.10;99.90;;;;;;4995335;28;20038;-85
2023/09/01 01:49:19;;;;;;;3.55;1.73;;;10.10;99.90;;;;;;4995693;28;20034;-86
2023/09/01 01:51:46;;;;;;;9.60;1.60;;;10.10;99.90;;;;;;5010850;28;20046;-86
2023/09/01 01:54:13;;;;;;;5.10;2.05;;;10.10;99.90;;;;;;4979607;28;20518;-87
2023/09/01 01:56:40;;;;;;;4.72;1.80;;;10.10;99.90;;;;;;4963378;28;20046;-87
2023/09/01 01:59:06;;;;;;;9.30;1.90;;;10.10;99.90;;;;;;4944365;28;20849;-86
2023/09/01 02:01:33;;;;;;;5.00;1.77;;;10.10;99.90;;;;;;4944053;28;20093;-87
2023/09/01 02:04:00;;;;;;;3.08;1.80;;;10.10;99.90;;;;;;4959525;28;20141;-86
2023/09/01 02:06:26;;;;;;;4.60;2.00;;;10.10;99.90;;;;;;4944483;28;20038;-87
2023/09/01 02:08:53;;;;;;;3.33;1.73;;;10.10;99.90;;;;;;4975683;28;20643;-86
2023/09/01 02:11:20;;;;;;;6.05;1.98;;;10.10;99.90;;;;;;4944093;28;20058;-87
2023/09/01 02:13:46;;;;;;;5.63;1.95;;;10.10;99.90;;;;;;4972447;28;20097;-87
2023/09/01 02:16:13;;;;;;;7.72;1.88;;;10.10;99.90;;;;;;4963386;28;20511;-86
2023/09/01 02:18:40;;;;;;;3.63;1.90;;;10.00;99.90;;;;;;4963031;28;20080;-86
2023/09/01 02:21:07;;;;;;;7.72;1.88;;;10.10;99.90;;;;;;4979024;28;20042;-87
2023/09/01 02:23:34;;;;;;;5.90;2.22;;;10.10;99.90;;;;;;4955865;28;20496;-86
2023/09/01 02:26:00;;;;;;;6.25;1.90;;;10.00;99.90;;;;;;4943744;28;20432;-86
2023/09/01 02:28:27;;;;;;;7.00;2.20;;;10.00;99.90;;;;;;4943446;28;20105;-87
2023/09/01 02:30:54;;;;;;;7.72;1.80;;;9.90;99.90;;;;;;4975581;28;20046;-87
2023/09/01 02:33:20;;;;;;;5.35;1.90;;;9.90;99.90;;;;;;4975533;28;20089;-87
2023/09/01 02:35:48;;;;;;;5.38;1.80;;;9.90;99.90;;;;;;4959469;28;20097;-86
2023/09/01 02:38:15;;;;;;;4.65;1.95;;;9.80;99.90;;;;;;4975197;28;20130;-86
2023/09/01 02:40:42;;;;;;;5.18;1.90;;;9.80;99.90;;;;;;4991059;28;20051;-87
2023/09/01 02:43:08;;;;;;;3.55;1.80;;;9.80;99.90;;;;;;4959167;28;20468;-87
2023/09/01 02:45:35;;;;;;;4.10;1.95;;;9.80;99.90;;;;;;4957949;28;20410;-86
2023/09/01 02:48:02;;;;;;;7.18;2.30;;;9.90;99.90;;;;;;4978229;28;20781;-87
2023/09/01 02:50:29;;;;;;;5.55;1.90;;;9.80;99.90;;;;;;4962685;28;20112;-86
2023/09/01 02:52:56;;;;;;;5.40;1.95;;;9.90;99.90;;;;;;4978291;28;20042;-86
2023/09/01 02:55:23;;;;;;;6.50;2.10;;;9.90;99.90;;;;;;4953739;28;20125;-86
2023/09/01 02:57:50;;;;;;;3.67;1.85;;;9.90;99.90;;;;;;4959268;28;20507;-87
2023/09/01 03:00:21;;;;;;;10.90;2.17;;;9.90;99.90;;;;;;4974790;28;20078;-87
2023/09/01 03:02:48;;;;;;;4.13;2.15;;;9.90;99.90;;;;;;4974788;28;20046;-87
2023/09/01 03:05:15;;;;;;;4.00;1.80;;;9.90;99.90;;;;;;4943524;28;20495;-86
2023/09/01 03:07:42;;;;;;;4.30;1.80;;;9.80;99.90;;;;;;4974422;28;20046;-86
2023/09/01 03:10:09;;;;;;;4.47;2.33;;;9.80;99.90;;;;;;4974830;28;20038;-86
2023/09/01 03:12:37;;;;;;;5.30;1.95;;;9.80;99.90;;;;;;4959121;28;20047;-86
2023/09/01 03:15:06;;;;;;;4.97;1.73;;;9.80;99.90;;;;;;4975029;28;20142;-86
2023/09/01 03:17:33;;;;;;;6.68;2.53;;;9.80;99.90;;;;;;4943607;28;20047;-86
2023/09/01 03:20:00;;;;;;;4.93;2.38;;;9.90;99.90;;;;;;4973473;28;20514;-86
2023/09/01 03:22:26;;;;;;;4.03;2.00;;;9.80;99.90;;;;;;4959183;28;20074;-86
2023/09/01 03:24:53;;;;;;;6.47;2.63;;;9.80;99.90;;;;;;4942864;28;20110;-87
2023/09/01 03:27:21;;;;;;;5.75;2.08;;;9.80;99.90;;;;;;4971362;28;20565;-86
2023/09/01 03:29:53;;;;;;;5.03;2.30;;;9.80;99.90;;;;;;4962245;28;20482;-86
2023/09/01 03:32:20;;;;;;;3.42;1.83;;;9.80;99.90;;;;;;4993962;28;20039;-87
2023/09/01 03:34:47;;;;;;;5.57;2.33;;;9.80;99.90;;;;;;4962457;28;20104;-86
2023/09/01 03:37:13;;;;;;;6.85;2.30;;;9.80;99.90;;;;;;4961875;28;20045;-86
2023/09/01 03:39:40;;;;;;;3.85;2.20;;;9.80;99.90;;;;;;5029561;28;20042;-86
2023/09/01 03:42:07;;;;;;;4.78;2.00;;;9.80;99.90;;;;;;4965715;28;20093;-86
2023/09/01 03:44:33;;;;;;;5.28;2.38;;;9.80;99.90;;;;;;4965994;28;20038;-86
2023/09/01 03:47:00;;;;;;;4.03;2.10;;;9.80;99.90;;;;;;4963541;28;20042;-86
2023/09/01 03:49:27;;;;;;;9.52;2.50;;;9.80;99.90;;;;;;4962407;28;20165;-87
2023/09/01 03:51:55;;;;;;;4.50;2.60;;;9.80;99.90;;;;;;4978396;28;20049;-86
2023/09/01 03:54:22;;;;;;;3.80;2.20;;;9.80;99.90;;;;;;4946750;28;20276;-86
2023/09/01 03:56:48;;;;;;;5.45;2.10;;;9.80;99.90;;;;;;4979478;28;20123;-86
2023/09/01 03:59:15;;;;;;;5.38;2.22;;;9.70;99.90;;;;;;4980655;28;20415;-86
2023/09/01 04:01:45;;;;;;;4.43;2.08;;;9.70;99.90;;;;;;4965848;28;20062;-86
2023/09/01 04:04:12;;;;;;;4.55;2.25;;;9.70;99.90;;;;;;4981801;28;20034;-87
2023/09/01 04:06:39;;;;;;;4.13;2.17;;;9.70;99.90;;;;;;4997540;28;20034;-86
2023/09/01 04:09:08;;;;;;;6.25;2.50;;;9.70;99.90;;;;;;4996717;28;20137;-87
2023/09/01 04:11:35;;;;;;;4.70;2.08;;;9.70;99.90;;;;;;4997286;28;20443;-86
2023/09/01 04:14:02;;;;;;;4.75;2.40;;;9.70;99.90;;;;;;4965349;28;20046;-86
2023/09/01 04:16:29;;;;;;;7.30;2.28;;;9.70;99.90;;;;;;4997245;28;20038;-86
2023/09/01 04:18:56;;;;;;;5.93;2.63;;;9.70;99.90;;;;;;4981243;28;20049;-86
2023/09/01 04:21:22;;;;;;;6.85;2.25;;;9.70;99.90;;;;;;4981082;28;20039;-86
2023/09/01 04:23:49;;;;;;;6.57;2.47;;;9.70;99.90;;;;;;4945315;28;20523;-86
2023/09/01 04:26:16;;;;;;;6.97;2.80;;;9.70;99.90;;;;;;4976990;28;20043;-86
2023/09/01 04:28:42;;;;;;;3.92;2.25;;;9.70;99.90;;;;;;4961712;28;20035;-86
2023/09/01 04:31:20;;;;;;;5.32;2.30;;;9.70;99.90;;;;;;4977117;28;20050;-87
2023/09/01 04:33:46;;;;;;;4.78;2.72;;;9.70;99.90;;;;;;4977221;28;20462;-86
2023/09/01 04:36:13;;;;;;;6.00;2.22;;;9.70;99.90;;;;;;4976867;28;20089;-86
2023/09/01 04:38:41;;;;;;;4.57;2.28;;;9.70;99.90;;;;;;4945531;28;20039;-86
2023/09/01 04:41:07;;;;;;;5.05;2.42;;;9.70;99.90;;;;;;4977010;28;20042;-86
2023/09/01 04:43:34;;;;;;;6.55;2.40;;;9.70;99.90;;;;;;4977540;28;20043;-86
2023/09/01 04:46:01;;;;;;;4.25;2.40;;;9.70;99.90;;;;;;4961040;28;20042;-86
2023/09/01 04:48:28;;;;;;;4.70;2.35;;;9.70;99.90;;;;;;4945308;28;20503;-86
2023/09/01 04:50:54;;;;;;;6.38;2.50;;;9.60;99.90;;;;;;4982080;28;20435;-86
2023/09/01 04:53:22;;;;;;;5.05;2.40;;;9.60;99.90;;;;;;4980364;28;20049;-86
2023/09/01 04:55:49;;;;;;;5.80;2.80;;;9.60;99.90;;;;;;4980522;28;20042;-87
2023/09/01 04:58:16;;;;;;;6.10;2.90;;;9.60;99.90;;;;;;4996585;28;20109;-87
2023/09/01 05:00:42;;;;;;;5.25;2.83;;;9.60;99.90;;;;;;4962944;28;20503;-86
2023/09/01 05:03:10;;;;;;;5.20;2.65;;;9.60;99.90;;;;;;4976404;28;20043;-86
2023/09/01 05:05:36;;;;;;;6.03;2.70;;;9.60;99.90;;;;;;4960880;28;20089;-86
2023/09/01 05:08:03;;;;;;;5.15;2.80;;;9.60;99.90;;;;;;4961354;28;20042;-86
2023/09/01 05:10:30;;;;;;;5.38;2.78;;;9.60;99.90;;;;;;4976246;28;20038;-87
2023/09/01 05:12:57;;;;;;;4.47;2.50;;;9.70;99.90;;;;;;4960895;28;20046;-86
2023/09/01 05:15:23;;;;;;;4.63;2.50;;;9.70;99.90;;;;;;4976837;28;20058;-86
2023/09/01 05:17:50;;;;;;;6.60;2.80;;;9.70;99.90;;;;;;4945934;28;20042;-86
2023/09/01 05:20:17;;;;;;;6.03;2.72;;;9.70;99.90;;;;;;4976267;28;20130;-86
2023/09/01 05:22:44;;;;;;;6.45;2.85;;;9.70;99.90;;;;;;4951562;28;20122;-86
2023/09/01 05:25:11;;;;;;;6.63;2.85;;;9.70;99.90;;;;;;4963535;28;20388;-87
2023/09/01 05:27:38;;;;;;;7.72;3.03;;;9.80;99.90;;;;;;4980161;28;20153;-86
2023/09/01 05:30:05;;;;;;;8.73;2.90;;;9.80;99.90;;;;;;4995928;28;20136;-86
2023/09/01 05:32:33;;;;;;;8.57;2.50;;;9.80;99.90;;;;;;4977461;28;20048;-87
2023/09/01 05:35:00;;;;;;;5.97;2.83;;;9.90;99.90;;;;;;4976506;28;20509;-86
2023/09/01 05:37:27;;;;;;;5.00;2.70;;;9.90;99.90;;;;;;4976027;28;20043;-86
2023/09/01 05:39:55;;;;;;;5.25;3.20;;;10.00;99.90;;;;;;4944457;28;20046;-87
2023/09/01 05:42:22;;;;;;;7.35;3.22;;;10.00;99.90;;;;;;4960244;28;20078;-87
2023/09/01 05:44:48;;;;;;;6.75;3.03;;;10.10;99.90;;;;;;4959300;28;20050;-87
2023/09/01 05:47:15;;;;;;;9.85;2.92;;;10.10;99.90;;;;;;4994846;28;20050;-86
2023/09/01 05:49:42;;;;;;;6.07;3.05;;;10.20;99.90;;;;;;4963553;28;20073;-87
2023/09/01 05:52:08;;;;;;;5.22;2.97;;;9.90;99.90;;;;;;4979078;28;20042;-87
2023/09/01 05:54:35;;;;;;;10.70;3.30;;;10.20;99.90;;;;;;4954331;28;20048;-87
2023/09/01 05:57:03;;;;;;;9.13;3.20;;;10.40;99.90;;;;;;4944572;28;20063;-87
2023/09/01 05:59:29;;;;;;;6.03;2.90;;;10.40;99.90;;;;;;4944894;28;20122;-87
2023/09/01 06:01:56;;;;;;;5.88;3.00;;;10.50;99.90;;;;;;4943986;28;20138;-87
2023/09/01 06:04:23;;;;;;;5.55;3.05;;;10.60;99.90;;;;;;4979852;28;20038;-87
2023/09/01 06:06:50;;;;;;;9.52;3.70;;;10.70;99.90;;;;;;4944942;28;20109;-86
2023/09/01 06:09:17;;;;;;;9.98;3.50;;;10.80;99.90;;;;;;4975570;28;20042;-87
2023/09/01 06:11:43;;;;;;;7.28;3.85;;;10.90;99.90;;;;;;4975790;28;20088;-86
2023/09/01 06:14:10;;;;;;;10.25;3.45;;;10.90;99.90;;;;;;4975942;28;20174;-87
2023/09/01 06:16:37;;;;;;;7.20;3.35;;;11.00;99.90;;;;;;4959832;28;20042;-86
2023/09/01 06:19:04;;;;;;;10.65;3.50;;;11.10;99.90;;;;;;4960221;28;20087;-87
2023/09/01 06:21:33;;;;;;;8.80;3.65;;;11.20;99.90;;;;;;4975301;28;20043;-87
2023/09/01 06:24:00;;;;;;;6.88;3.50;;;11.20;99.90;;;;;;4976055;28;20047;-87
2023/09/01 06:26:26;;;;;;;7.63;3.83;;;11.30;99.90;;;;;;4975178;28;20061;-87
2023/09/01 06:28:53;;;;;;;6.20;3.63;;;11.40;99.90;;;;;;4976207;28;20039;-88
2023/09/01 06:31:20;;;;;;;7.47;3.60;;;11.40;99.90;;;;;;4959672;28;20078;-89
2023/09/01 06:33:47;;;;;;;8.95;3.80;;;11.60;99.90;;;;;;4960349;28;20439;-88
2023/09/01 06:36:18;;;;;;;8.07;3.65;;;11.60;99.90;;;;;;4971157;28;20149;-88
2023/09/01 06:38:44;;;;;;;6.85;3.92;;;11.70;99.90;;;;;;4960262;28;20094;-89
2023/09/01 06:41:12;;;;;;;6.65;3.58;;;11.70;99.90;;;;;;4943977;28;20043;-88
2023/09/01 06:43:40;;;;;;;11.18;3.65;;;11.80;99.90;;;;;;4975701;28;20486;-89
2023/09/01 06:46:06;;;;;;;11.32;3.55;;;11.80;99.90;;;;;;4948265;28;20034;-88
2023/09/01 06:48:35;;;;;;;10.75;3.72;;;11.90;99.90;;;;;;4978917;28;20100;-88
2023/09/01 06:51:02;;;;;;;9.10;3.47;;;12.00;99.90;;;;;;4979167;28;20052;-88
2023/09/01 06:53:29;;;;;;;8.02;3.33;;;12.10;99.90;;;;;;4994984;28;20125;-88
2023/09/01 06:55:56;;;;;;;8.38;3.60;;;12.20;99.90;;;;;;4995019;28;20475;-88
2023/09/01 06:58:23;;;;;;;10.13;3.53;;;12.30;99.90;;;;;;4977815;28;20038;-89
2023/09/01 07:00:52;;;;;;;15.27;3.92;;;12.30;99.90;;;;;;4995886;28;20398;-88
2023/09/01 07:03:20;;;;;;;9.65;3.28;;;12.50;99.90;;;;;;4982603;28;20038;-88
2023/09/01 07:05:57;;;;;;;7.25;3.17;;;12.50;99.90;;;;;;4994299;28;20045;-88
2023/09/01 07:08:24;;;;;;;7.60;3.22;;;12.60;99.90;;;;;;4994632;28;20038;-89
2023/09/01 07:10:51;;;;;;;12.30;3.08;;;12.70;99.90;;;;;;4962829;29;20503;-88
2023/09/01 07:13:20;;;;;;;8.75;3.63;;;12.90;99.90;;;;;;4940025;29;20078;-88
2023/09/01 07:15:51;;;;;;;8.15;3.65;;;13.00;99.90;;;;;;4941189;29;20051;-89
2023/09/01 07:18:22;;;;;;;10.35;2.92;;;13.10;99.90;;;;;;4955903;29;20050;-88
2023/09/01 07:20:50;;;;;;;10.35;3.22;;;13.10;99.90;;;;;;4956339;29;20134;-88
2023/09/01 07:23:19;;;;;;;7.70;3.40;;;13.20;99.90;;;;;;4973496;28;20045;-89
2023/09/01 07:25:46;;;;;;;10.65;3.03;;;13.30;99.90;;;;;;4991051;28;20604;-88
2023/09/01 07:28:12;;;;;;;5.25;2.70;;;13.30;99.90;;;;;;4994579;28;20049;-88
2023/09/01 07:30:40;;;;;;;5.75;3.00;;;13.50;99.90;;;;;;4978386;28;20042;-88
2023/09/01 07:33:07;;;;;;;6.32;2.90;;;13.60;99.90;;;;;;5010391;28;20043;-88
2023/09/01 07:35:33;;;;;;;6.43;2.72;;;13.70;99.90;;;;;;4962331;28;20407;-88
2023/09/01 07:38:03;;;;;;;8.57;3.13;;;13.80;99.90;;;;;;4994583;28;20574;-88
2023/09/01 07:40:33;;;;;;;5.82;2.60;;;13.90;99.90;;;;;;4980049;28;20049;-88
2023/09/01 07:43:00;;;;;;;4.43;2.38;;;14.00;99.90;;;;;;4990901;28;20035;-88
2023/09/01 07:45:28;;;;;;;11.25;2.58;;;14.10;99.90;;;;;;4991310;28;20035;-88
2023/09/01 07:47:55;;;;;;;4.95;2.30;;;14.20;99.90;;;;;;4990798;28;20085;-88
2023/09/01 07:50:23;;;;;;;7.45;2.47;;;14.30;99.90;;;;;;4943794;28;20078;-88
2023/09/01 07:52:51;;;;;;;4.47;2.10;;;14.40;99.90;;;;;;4959294;28;20047;-89
2023/09/01 07:55:18;;;;;;;3.47;1.73;;;14.40;99.90;;;;;;4959190;28;20491;-88
2023/09/01 07:57:45;;;;;;;7.55;2.15;;;14.50;99.90;;;;;;4975136;28;20062;-89
2023/09/01 08:00:12;;;;;;;7.55;2.25;;;14.60;99.90;;;;;;4937573;29;20055;-86
2023/09/01 08:02:39;;;;;;;6.32;2.00;;;14.60;99.90;;;;;;4954603;28;20078;-86
2023/09/01 08:05:06;;;;;;;7.25;1.95;;;14.70;99.90;;;;;;4974241;28;20475;-88
2023/09/01 08:07:33;;;;;;;7.07;1.73;;;14.80;99.90;;;;;;4974603;28;20039;-88
2023/09/01 08:10:00;;;;;;;9.40;2.10;;;14.90;99.90;;;;;;4943485;28;20045;-88
2023/09/01 08:12:27;;;;;;;5.30;1.85;;;14.90;99.90;;;;;;4943803;28;20125;-88
2023/09/01 08:14:55;;;;;;;6.05;1.65;;;15.10;99.90;;;;;;5001737;28;20403;-89
2023/09/01 08:17:21;;;;;;;4.57;2.45;;;15.20;99.90;;;;;;4978485;28;20376;-89
2023/09/01 08:19:49;;;;;;;7.75;2.20;;;15.30;99.90;;;;;;4993768;28;20050;-89
2023/09/01 08:22:16;;;;;;;5.93;2.40;;;15.30;99.90;;;;;;4978395;28;20042;-90
2023/09/01 08:24:44;;;;;;;7.75;2.70;;;15.30;99.90;;;;;;4977640;28;20469;-89
2023/09/01 08:27:11;;;;;;;4.75;2.42;;;15.40;99.90;;;;;;5013991;28;20110;-90
2023/09/01 08:29:38;;;;;;;5.20;2.20;;;15.50;99.90;;;;;;4981767;28;20049;-89
2023/09/01 08:32:05;;;;;;;5.57;1.65;;;15.50;99.90;;;;;;4953710;28;20051;-90
2023/09/01 08:34:32;;;;;;;4.43;1.73;;;15.60;99.90;;;;;;4964702;28;20047;-90
2023/09/01 08:36:59;;;;;;;4.20;1.80;;;15.70;99.90;;;;;;4976882;28;20521;-90
2023/09/01 08:39:26;;;;;;;4.45;1.73;;;15.80;99.90;;;;;;4960979;28;20130;-90
2023/09/01 08:41:53;;;;;;;5.38;2.28;;;15.90;99.90;;;;;;4945975;28;20042;-91
2023/09/01 08:44:23;;;;;;;5.80;2.33;;;16.00;99.90;;;;;;4993464;28;20047;-89
2023/09/01 08:46:55;;;;;;;7.85;2.20;;;16.10;99.90;;;;;;4982971;28;20043;-90
2023/09/01 08:49:25;;;;;;;6.57;2.15;;;16.10;99.90;;;;;;4981516;28;20046;-90
2023/09/01 08:51:53;;;;;;;6.63;1.90;;;16.30;99.90;;;;;;4977846;28;20115;-91
2023/09/01 08:54:20;;;;;;;5.00;1.83;;;16.40;99.90;;;;;;4977958;28;20047;-90
2023/09/01 08:56:48;;;;;;;5.38;1.65;;;16.50;99.90;;;;;;4961881;28;20101;-91
2023/09/01 08:59:15;;;;;;;5.00;1.48;;;16.60;99.90;;;;;;4962297;28;20061;-91
2023/09/01 09:01:41;;;;;;;5.32;1.48;;;16.60;99.90;;;;;;4961204;28;20051;-90
2023/09/01 09:04:08;;;;;;;6.20;1.75;;;16.70;99.90;;;;;;4994606;28;20038;-90
2023/09/01 09:06:39;;;;;;;4.68;1.30;;;16.70;99.90;;;;;;4997528;28;20038;-90
2023/09/01 09:09:18;;;;;;;3.13;1.30;;;16.70;99.90;;;;;;4991147;28;20086;-91
2023/09/01 09:12:04;;;;;;;6.50;1.20;;;16.70;99.90;;;;;;4981536;28;20292;-89
2023/09/01 09:14:51;;;;;;;3.22;1.20;;;16.80;99.90;;;;;;4996689;28;20038;-88
2023/09/01 09:17:23;;;;;;;1.75;0.88;;;16.80;99.90;;;;;;4990143;28;20039;-85
2023/09/01 09:19:56;;;;;;;4.50;1.10;;;16.90;99.90;;;;;;4960597;28;20081;-85
2023/09/01 09:22:23;;;;;;;3.45;1.20;;;17.00;99.90;;;;;;4975535;28;20042;-86
2023/09/01 09:24:50;;;;;;;5.20;1.40;;;16.90;99.90;;;;;;4972370;29;20628;-86
2023/09/01 09:27:18;;;;;;;2.08;0.90;;;17.00;99.90;;;;;;4959547;28;20039;-86
2023/09/01 09:29:45;;;;;;;5.03;1.00;;;17.00;99.90;;;;;;4944497;28;20084;-87
2023/09/01 09:32:20;;;;;;;5.60;1.17;;;16.70;99.90;;;;;;4975914;28;20740;-86
2023/09/01 09:35:07;;;;;;;4.38;1.23;;;17.10;99.90;;;;;;4975862;28;20502;-86
2023/09/01 09:37:35;;;;;;;4.78;1.20;;;17.10;99.90;;;;;;4945806;29;20070;-86
2023/09/01 09:40:16;;;;;;;2.25;1.00;;;17.20;99.90;;;;;;4940731;29;20370;-86
2023/09/01 09:42:46;;;;;;;3.13;1.08;;;17.20;99.90;;;;;;4940772;29;20043;-87
2023/09/01 09:45:31;;;;;;;3.47;1.13;;;17.30;99.90;;;;;;4956740;29;20043;-86
2023/09/01 09:48:09;;;;;;;3.13;0.90;;;17.40;99.90;;;;;;4956051;28;20043;-86
2023/09/01 09:50:37;;;;;;;3.45;1.25;;;17.40;99.90;;;;;;4953352;29;20493;-86
2023/09/01 09:53:05;;;;;;;5.05;1.30;;;17.40;99.90;;;;;;4937651;29;20048;-86
2023/09/01 09:55:33;;;;;;;4.20;1.30;;;17.40;99.90;;;;;;4937961;29;20042;-86
2023/09/01 09:58:09;;;;;;;2.75;1.10;;;17.40;99.90;;;;;;4937447;29;20035;-86
2023/09/01 10:00:53;;;;;;;4.43;1.10;;;17.40;99.90;;;;;;4972818;28;20077;-87
2023/09/01 10:03:25;;;;;;;6.18;1.20;;;17.50;99.90;;;;;;4976751;29;20038;-86
2023/09/01 10:05:54;;;;;;;4.85;1.20;;;17.40;99.90;;;;;;4955759;29;20441;-87
2023/09/01 10:08:23;;;;;;;5.13;1.10;;;17.50;99.90;;;;;;4956113;29;20511;-84
2023/09/01 10:10:53;;;;;;;3.42;1.05;;;17.50;99.90;;;;;;4959203;28;20415;-82
2023/09/01 10:13:21;;;;;;;3.25;1.38;;;17.50;99.90;;;;;;4975037;28;20041;-87
2023/09/01 10:15:48;;;;;;;2.70;1.02;;;17.60;99.90;;;;;;4958947;28;20518;-85
2023/09/01 10:18:16;;;;;;;3.42;0.93;;;17.50;99.90;;;;;;4959042;28;20039;-85
2023/09/01 10:20:43;;;;;;;4.13;1.20;;;17.50;99.90;;;;;;4944395;29;20111;-89
2023/09/01 10:23:11;;;;;;;3.17;1.10;;;17.50;99.90;;;;;;4937380;29;20048;-89
2023/09/01 10:25:38;;;;;;;3.55;1.10;;;17.50;99.90;;;;;;4953471;29;20055;-89
2023/09/01 10:28:13;;;;;;;2.63;1.02;;;17.60;99.90;;;;;;4962146;28;20046;-88
2023/09/01 10:30:42;;;;;;;3.50;1.10;;;17.60;99.90;;;;;;4979450;28;20556;-88
2023/09/01 10:33:14;;;;;;;3.70;1.35;;;17.70;99.90;;;;;;4991011;28;20488;-88
2023/09/01 10:35:50;;;;;;;2.83;1.30;;;17.70;99.90;;;;;;4975257;28;20047;-88
2023/09/01 10:38:20;;;;;;;2.55;1.10;;;17.70;99.90;;;;;;4956881;29;20043;-89
2023/09/01 10:40:53;;;;;;;7.90;1.55;;;17.70;99.90;;;;;;4956818;28;20066;-88
2023/09/01 10:43:35;;;;;;;5.82;1.50;;;17.60;99.90;;;;;;4959813;28;20034;-88
2023/09/01 10:46:16;;;;;;;4.47;1.50;;;17.70;99.90;;;;;;4975223;28;20049;-88
2023/09/01 10:48:59;;;;;;;5.53;1.80;;;17.70;99.90;;;;;;4980086;28;20463;-88
2023/09/01 10:51:28;;;;;;;5.45;1.80;;;17.60;99.90;;;;;;4985309;28;20038;-88
2023/09/01 10:53:56;;;;;;;3.78;1.63;;;17.60;99.90;;;;;;4974824;28;20085;-88
2023/09/01 10:56:24;;;;;;;6.57;1.83;;;17.80;99.90;;;;;;4959941;28;20050;-88
2023/09/01 10:58:52;;;;;;;4.30;1.52;;;17.80;99.90;;;;;;4974900;28;20047;-88
2023/09/01 11:01:38;;;;;;;4.47;1.73;;;17.90;99.90;;;;;;4944114;28;20046;-88
2023/09/01 11:04:25;;;;;;;7.15;1.80;;;18.00;99.90;;;;;;4959040;28;20050;-89
2023/09/01 11:06:58;;;;;;;4.57;1.67;;;18.10;99.90;;;;;;4971851;28;20045;-87
2023/09/01 11:09:34;;;;;;;4.43;1.90;;;18.30;99.90;;;;;;4984190;28;20057;-87
2023/09/01 11:12:08;;;;;;;5.07;1.60;;;18.30;99.90;;;;;;4993442;28;20045;-87
2023/09/01 11:14:37;;;;;;;5.53;1.63;;;18.40;99.90;;;;;;4994261;28;20137;-87
2023/09/01 11:17:04;;;;;;;4.80;1.67;;;18.50;99.90;;;;;;4993996;28;20082;-87
2023/09/01 11:19:32;;;;;;;5.68;1.70;;;18.60;99.90;;;;;;4978093;28;20533;-87
2023/09/01 11:22:00;;;;;;;6.78;1.65;;;18.50;99.90;;;;;;4993647;28;20038;-87
2023/09/01 11:24:26;;;;;;;6.85;1.80;;;18.60;99.90;;;;;;4985835;28;20043;-87
2023/09/01 11:26:53;;;;;;;3.53;1.52;;;18.60;99.90;;;;;;4961324;28;20053;-88
2023/09/01 11:29:20;;;;;;;3.65;1.70;;;18.70;99.90;;;;;;4966496;28;20042;-88
2023/09/01 11:31:47;;;;;;;4.35;1.75;;;18.90;99.90;;;;;;4959055;28;20129;-87
2023/09/01 11:34:15;;;;;;;3.22;1.50;;;19.00;99.90;;;;;;4963022;28;20038;-88
2023/09/01 11:36:52;;;;;;;4.95;1.67;;;19.00;99.90;;;;;;4978288;28;20088;-88
2023/09/01 11:39:20;;;;;;;7.45;1.95;;;19.10;99.90;;;;;;4978247;28;20041;-87
2023/09/01 11:41:49;;;;;;;5.32;1.85;;;19.00;99.90;;;;;;4943441;28;20046;-88
2023/09/01 11:44:16;;;;;;;7.55;1.70;;;19.00;99.90;;;;;;4961987;28;20743;-88
2023/09/01 11:46:44;;;;;;;5.40;1.80;;;19.10;99.90;;;;;;4962347;28;20085;-87
2023/09/01 11:49:16;;;;;;;6.60;2.05;;;19.20;99.90;;;;;;4963541;28;20403;-88
2023/09/01 11:51:42;;;;;;;4.93;2.00;;;19.40;99.90;;;;;;4974248;28;20043;-88
2023/09/01 11:54:09;;;;;;;7.03;2.30;;;19.50;99.90;;;;;;4974811;28;20038;-88
2023/09/01 11:56:36;;;;;;;7.80;2.63;;;19.60;99.90;;;;;;4958483;28;20046;-88
2023/09/01 11:59:03;;;;;;;6.18;2.63;;;19.60;99.90;;;;;;4962615;28;20124;-88
2023/09/01 12:01:35;;;;;;;7.95;2.47;;;19.70;99.90;;;;;;4981122;28;20039;-88
2023/09/01 12:04:07;;;;;;;8.80;2.60;;;19.70;99.90;;;;;;4997736;28;20046;-88
2023/09/01 12:06:49;;;;;;;8.13;3.33;;;19.70;99.90;;;;;;4981073;28;20101;-88
2023/09/01 12:09:18;;;;;;;8.93;3.22;;;19.70;99.90;;;;;;4997213;28;20596;-88
2023/09/01 12:11:53;;;;;;;8.25;4.00;;;19.70;99.90;;;;;;4997349;28;20038;-88
2023/09/01 12:14:25;;;;;;;8.50;2.80;;;19.70;99.90;;;;;;4997678;28;20061;-87
2023/09/01 12:16:54;;;;;;;7.95;3.00;;;19.90;99.90;;;;;;4997617;28;20037;-88
2023/09/01 12:19:25;;;;;;;8.10;3.08;;;19.90;99.90;;;;;;4979611;28;20483;-88
2023/09/01 12:21:56;;;;;;;8.10;3.42;;;19.90;99.90;;;;;;4994242;28;20045;-88
2023/09/01 12:24:23;;;;;;;7.95;2.90;;;20.00;99.90;;;;;;5008365;28;20049;-87
2023/09/01 12:26:50;;;;;;;6.07;2.95;;;19.90;99.90;;;;;;4970685;28;20491;-88
2023/09/01 12:29:18;;;;;;;7.05;2.70;;;19.80;99.90;;;;;;4980908;28;20038;-88
2023/09/01 12:31:48;;;;;;;6.78;2.50;;;19.90;99.90;;;;;;4977909;28;20072;-90
2023/09/01 12:34:15;;;;;;;8.48;2.85;;;19.80;99.90;;;;;;4955795;28;20602;-88
2023/09/01 12:36:41;;;;;;;6.57;2.85;;;19.90;99.90;;;;;;4962451;28;20046;-88
2023/09/01 12:39:08;;;;;;;7.55;2.53;;;20.00;99.90;;;;;;4964200;28;20042;-88
2023/09/01 12:41:35;;;;;;;11.20;2.75;;;20.10;99.90;;;;;;4962086;28;20039;-89
2023/09/01 12:44:02;;;;;;;10.10;3.40;;;20.10;99.90;;;;;;4946084;28;20035;-88
2023/09/01 12:46:28;;;;;;;7.07;3.05;;;20.00;99.90;;;;;;4945759;28;20043;-87
2023/09/01 12:48:55;;;;;;;8.88;2.85;;;20.00;99.90;;;;;;4945430;28;20039;-86
2023/09/01 12:51:22;;;;;;;6.25;3.10;;;20.10;99.90;;;;;;4960927;28;20043;-89
2023/09/01 12:53:48;;;;;;;8.88;3.08;;;20.10;99.90;;;;;;4970541;28;20418;-90
2023/09/01 12:56:17;;;;;;;10.18;2.80;;;20.20;99.90;;;;;;4965087;28;20190;-90